sensor_id;sensor_type;location;lat;lon;timestamp;P1;durP1;ratioP1;P2;durP2;ratioP2
71502;SDS011;59322;51.382;7.372;2023-07-31T00:01:18;70.53;;;65.78;;
71502;SDS011;59322;51.382;7.372;2023-07-31T00:03:43;69.30;;;64.47;;
71502;SDS011;59322;51.382;7.372;2023-07-31T00:06:09;76.40;;;71.32;;
71502;SDS011;59322;51.382;7.372;2023-07-31T00:08:35;80.50;;;74.97;;
71502;SDS011;59322;51.382;7.372;2023-07-31T00:11:01;86.03;;;80.50;;
71502;SDS011;59322;51.382;7.372;2023-07-31T00:13:27;87.40;;;81.78;;
71502;SDS011;59322;51.382;7.372;2023-07-31T00:15:53;83.82;;;78.47;;
71502;SDS011;59322;51.382;7.372;2023-07-31T00:18:19;82.97;;;77.63;;
71502;SDS011;59322;51.382;7.372;2023-07-31T00:20:45;90.70;;;84.95;;
71502;SDS011;59322;51.382;7.372;2023-07-31T00:23:11;83.57;;;78.38;;
71502;SDS011;59322;51.382;7.372;2023-07-31T00:25:36;92.18;;;86.28;;
71502;SDS011;59322;51.382;7.372;2023-07-31T00:28:02;88.88;;;83.40;;
71502;SDS011;59322;51.382;7.372;2023-07-31T00:30:28;87.78;;;82.47;;
71502;SDS011;59322;51.382;7.372;2023-07-31T00:32:54;84.30;;;78.82;;
71502;SDS011;59322;51.382;7.372;2023-07-31T00:35:20;84.35;;;79.03;;
71502;SDS011;59322;51.382;7.372;2023-07-31T00:37:46;79.22;;;74.05;;
71502;SDS011;59322;51.382;7.372;2023-07-31T00:40:12;79.18;;;74.05;;
71502;SDS011;59322;51.382;7.372;2023-07-31T00:42:38;79.60;;;74.45;;
71502;SDS011;59322;51.382;7.372;2023-07-31T00:45:04;81.32;;;75.97;;
71502;SDS011;59322;51.382;7.372;2023-07-31T00:47:30;84.25;;;78.78;;
71502;SDS011;59322;51.382;7.372;2023-07-31T00:49:56;81.63;;;76.60;;
71502;SDS011;59322;51.382;7.372;2023-07-31T00:52:22;81.00;;;75.53;;
71502;SDS011;59322;51.382;7.372;2023-07-31T00:54:48;71.85;;;66.65;;
71502;SDS011;59322;51.382;7.372;2023-07-31T00:57:14;69.80;;;64.97;;
71502;SDS011;59322;51.382;7.372;2023-07-31T00:59:40;65.07;;;60.38;;
71502;SDS011;59322;51.382;7.372;2023-07-31T01:02:06;56.08;;;51.42;;
71502;SDS011;59322;51.382;7.372;2023-07-31T01:04:32;53.63;;;49.58;;
71502;SDS011;59322;51.382;7.372;2023-07-31T01:09:37;72.93;;;67.82;;
71502;SDS011;59322;51.382;7.372;2023-07-31T01:12:04;94.72;;;88.13;;
71502;SDS011;59322;51.382;7.372;2023-07-31T01:14:32;83.10;;;77.32;;
71502;SDS011;59322;51.382;7.372;2023-07-31T01:16:58;71.93;;;67.05;;
71502;SDS011;59322;51.382;7.372;2023-07-31T01:19:24;74.35;;;69.22;;
71502;SDS011;59322;51.382;7.372;2023-07-31T01:21:59;60.65;;;56.38;;
71502;SDS011;59322;51.382;7.372;2023-07-31T01:24:41;53.60;;;49.60;;
71502;SDS011;59322;51.382;7.372;2023-07-31T01:27:12;53.13;;;49.38;;
71502;SDS011;59322;51.382;7.372;2023-07-31T01:29:40;50.92;;;47.22;;
71502;SDS011;59322;51.382;7.372;2023-07-31T01:32:08;52.03;;;48.00;;
71502;SDS011;59322;51.382;7.372;2023-07-31T01:34:34;53.20;;;49.35;;
71502;SDS011;59322;51.382;7.372;2023-07-31T01:37:01;50.63;;;46.88;;
71502;SDS011;59322;51.382;7.372;2023-07-31T01:39:27;47.95;;;44.65;;
71502;SDS011;59322;51.382;7.372;2023-07-31T01:41:53;57.63;;;53.45;;
71502;SDS011;59322;51.382;7.372;2023-07-31T01:44:18;53.78;;;49.97;;
71502;SDS011;59322;51.382;7.372;2023-07-31T01:46:44;54.45;;;50.47;;
71502;SDS011;59322;51.382;7.372;2023-07-31T01:49:10;50.05;;;46.70;;
71502;SDS011;59322;51.382;7.372;2023-07-31T01:51:36;41.80;;;38.72;;
71502;SDS011;59322;51.382;7.372;2023-07-31T01:54:02;39.70;;;36.65;;
71502;SDS011;59322;51.382;7.372;2023-07-31T01:56:28;42.40;;;39.10;;
71502;SDS011;59322;51.382;7.372;2023-07-31T01:58:54;40.88;;;37.60;;
71502;SDS011;59322;51.382;7.372;2023-07-31T02:01:20;37.50;;;34.90;;
71502;SDS011;59322;51.382;7.372;2023-07-31T02:03:46;39.22;;;36.00;;
71502;SDS011;59322;51.382;7.372;2023-07-31T02:06:12;41.00;;;37.35;;
71502;SDS011;59322;51.382;7.372;2023-07-31T02:08:38;40.17;;;36.92;;
71502;SDS011;59322;51.382;7.372;2023-07-31T02:11:04;40.33;;;36.90;;
71502;SDS011;59322;51.382;7.372;2023-07-31T02:13:30;42.03;;;38.70;;
71502;SDS011;59322;51.382;7.372;2023-07-31T02:15:55;43.42;;;40.03;;
71502;SDS011;59322;51.382;7.372;2023-07-31T02:18:21;44.10;;;40.88;;
71502;SDS011;59322;51.382;7.372;2023-07-31T02:20:50;45.40;;;41.75;;
71502;SDS011;59322;51.382;7.372;2023-07-31T02:23:17;45.10;;;41.70;;
71502;SDS011;59322;51.382;7.372;2023-07-31T02:25:43;46.15;;;42.35;;
71502;SDS011;59322;51.382;7.372;2023-07-31T02:28:09;45.25;;;41.72;;
71502;SDS011;59322;51.382;7.372;2023-07-31T02:30:34;43.45;;;40.15;;
71502;SDS011;59322;51.382;7.372;2023-07-31T02:33:00;43.72;;;40.45;;
71502;SDS011;59322;51.382;7.372;2023-07-31T02:35:26;45.28;;;41.63;;
71502;SDS011;59322;51.382;7.372;2023-07-31T02:37:52;46.60;;;43.35;;
71502;SDS011;59322;51.382;7.372;2023-07-31T02:40:18;45.22;;;41.65;;
71502;SDS011;59322;51.382;7.372;2023-07-31T02:42:44;40.30;;;37.47;;
71502;SDS011;59322;51.382;7.372;2023-07-31T02:45:10;41.75;;;38.53;;
71502;SDS011;59322;51.382;7.372;2023-07-31T02:47:36;40.25;;;37.05;;
71502;SDS011;59322;51.382;7.372;2023-07-31T02:50:05;44.13;;;40.88;;
71502;SDS011;59322;51.382;7.372;2023-07-31T02:52:31;48.25;;;44.85;;
71502;SDS011;59322;51.382;7.372;2023-07-31T02:54:57;49.70;;;45.80;;
71502;SDS011;59322;51.382;7.372;2023-07-31T02:57:23;46.15;;;42.55;;
71502;SDS011;59322;51.382;7.372;2023-07-31T02:59:49;47.75;;;44.17;;
71502;SDS011;59322;51.382;7.372;2023-07-31T03:02:15;48.50;;;44.78;;
71502;SDS011;59322;51.382;7.372;2023-07-31T03:04:41;47.97;;;44.38;;
71502;SDS011;59322;51.382;7.372;2023-07-31T03:07:07;44.70;;;41.40;;
71502;SDS011;59322;51.382;7.372;2023-07-31T03:09:32;43.33;;;39.95;;
71502;SDS011;59322;51.382;7.372;2023-07-31T03:11:58;43.35;;;40.03;;
71502;SDS011;59322;51.382;7.372;2023-07-31T03:14:24;43.97;;;40.30;;
71502;SDS011;59322;51.382;7.372;2023-07-31T03:16:50;38.05;;;35.17;;
71502;SDS011;59322;51.382;7.372;2023-07-31T03:19:16;39.67;;;36.15;;
71502;SDS011;59322;51.382;7.372;2023-07-31T03:21:42;40.45;;;36.83;;
71502;SDS011;59322;51.382;7.372;2023-07-31T03:24:08;38.15;;;35.13;;
71502;SDS011;59322;51.382;7.372;2023-07-31T03:26:34;33.70;;;30.95;;
71502;SDS011;59322;51.382;7.372;2023-07-31T03:29:00;35.05;;;32.15;;
71502;SDS011;59322;51.382;7.372;2023-07-31T03:31:25;35.00;;;32.10;;
71502;SDS011;59322;51.382;7.372;2023-07-31T03:33:51;28.05;;;25.35;;
71502;SDS011;59322;51.382;7.372;2023-07-31T03:36:17;56.33;;;50.80;;
71502;SDS011;59322;51.382;7.372;2023-07-31T03:38:43;30.48;;;28.08;;
71502;SDS011;59322;51.382;7.372;2023-07-31T03:41:09;29.13;;;26.88;;
71502;SDS011;59322;51.382;7.372;2023-07-31T03:43:35;29.75;;;26.88;;
71502;SDS011;59322;51.382;7.372;2023-07-31T03:46:01;24.75;;;22.25;;
71502;SDS011;59322;51.382;7.372;2023-07-31T03:48:27;26.70;;;24.27;;
71502;SDS011;59322;51.382;7.372;2023-07-31T03:50:53;25.23;;;22.98;;
71502;SDS011;59322;51.382;7.372;2023-07-31T03:53:19;35.40;;;32.28;;
71502;SDS011;59322;51.382;7.372;2023-07-31T03:55:44;26.20;;;24.08;;
71502;SDS011;59322;51.382;7.372;2023-07-31T03:58:10;36.85;;;33.75;;
71502;SDS011;59322;51.382;7.372;2023-07-31T04:00:36;27.00;;;24.80;;
71502;SDS011;59322;51.382;7.372;2023-07-31T04:03:02;23.35;;;20.98;;
71502;SDS011;59322;51.382;7.372;2023-07-31T04:05:29;23.40;;;21.20;;
71502;SDS011;59322;51.382;7.372;2023-07-31T04:07:55;24.73;;;22.42;;
71502;SDS011;59322;51.382;7.372;2023-07-31T04:10:21;24.92;;;22.65;;
71502;SDS011;59322;51.382;7.372;2023-07-31T04:12:47;28.10;;;26.00;;
71502;SDS011;59322;51.382;7.372;2023-07-31T04:15:13;29.13;;;26.92;;
71502;SDS011;59322;51.382;7.372;2023-07-31T04:17:39;28.52;;;26.13;;
71502;SDS011;59322;51.382;7.372;2023-07-31T04:20:05;27.27;;;24.92;;
71502;SDS011;59322;51.382;7.372;2023-07-31T04:22:31;33.08;;;30.25;;
71502;SDS011;59322;51.382;7.372;2023-07-31T04:24:57;30.27;;;27.73;;
71502;SDS011;59322;51.382;7.372;2023-07-31T04:27:23;30.92;;;28.50;;
71502;SDS011;59322;51.382;7.372;2023-07-31T04:29:49;31.45;;;28.95;;
71502;SDS011;59322;51.382;7.372;2023-07-31T04:32:15;30.63;;;28.30;;
71502;SDS011;59322;51.382;7.372;2023-07-31T04:34:41;33.15;;;30.52;;
71502;SDS011;59322;51.382;7.372;2023-07-31T04:37:06;33.35;;;30.55;;
71502;SDS011;59322;51.382;7.372;2023-07-31T04:39:32;31.67;;;29.17;;
71502;SDS011;59322;51.382;7.372;2023-07-31T04:42:01;32.28;;;29.80;;
71502;SDS011;59322;51.382;7.372;2023-07-31T04:44:27;35.50;;;32.70;;
71502;SDS011;59322;51.382;7.372;2023-07-31T04:46:53;35.28;;;32.05;;
71502;SDS011;59322;51.382;7.372;2023-07-31T04:49:19;33.75;;;31.08;;
71502;SDS011;59322;51.382;7.372;2023-07-31T04:51:45;38.22;;;35.42;;
71502;SDS011;59322;51.382;7.372;2023-07-31T04:54:10;42.35;;;39.05;;
71502;SDS011;59322;51.382;7.372;2023-07-31T04:56:36;39.33;;;36.28;;
71502;SDS011;59322;51.382;7.372;2023-07-31T04:59:02;42.47;;;39.25;;
71502;SDS011;59322;51.382;7.372;2023-07-31T05:01:28;38.95;;;36.10;;
71502;SDS011;59322;51.382;7.372;2023-07-31T05:03:54;38.05;;;35.13;;
71502;SDS011;59322;51.382;7.372;2023-07-31T05:06:20;36.30;;;33.50;;
71502;SDS011;59322;51.382;7.372;2023-07-31T05:08:46;37.92;;;35.03;;
71502;SDS011;59322;51.382;7.372;2023-07-31T05:11:12;35.67;;;33.10;;
71502;SDS011;59322;51.382;7.372;2023-07-31T05:13:38;36.60;;;33.80;;
71502;SDS011;59322;51.382;7.372;2023-07-31T05:16:03;37.97;;;35.00;;
71502;SDS011;59322;51.382;7.372;2023-07-31T05:18:29;38.70;;;35.65;;
71502;SDS011;59322;51.382;7.372;2023-07-31T05:20:55;35.15;;;32.40;;
71502;SDS011;59322;51.382;7.372;2023-07-31T05:23:21;39.75;;;36.42;;
71502;SDS011;59322;51.382;7.372;2023-07-31T05:25:47;37.88;;;35.08;;
71502;SDS011;59322;51.382;7.372;2023-07-31T05:28:13;39.33;;;36.17;;
71502;SDS011;59322;51.382;7.372;2023-07-31T05:30:39;43.45;;;40.05;;
71502;SDS011;59322;51.382;7.372;2023-07-31T05:33:05;41.30;;;38.17;;
71502;SDS011;59322;51.382;7.372;2023-07-31T05:35:31;40.83;;;37.72;;
71502;SDS011;59322;51.382;7.372;2023-07-31T05:37:56;46.85;;;43.22;;
71502;SDS011;59322;51.382;7.372;2023-07-31T05:40:22;44.22;;;41.00;;
71502;SDS011;59322;51.382;7.372;2023-07-31T05:42:48;42.03;;;38.85;;
71502;SDS011;59322;51.382;7.372;2023-07-31T05:45:14;42.63;;;39.38;;
71502;SDS011;59322;51.382;7.372;2023-07-31T05:47:40;41.92;;;38.80;;
71502;SDS011;59322;51.382;7.372;2023-07-31T05:50:06;39.03;;;36.13;;
71502;SDS011;59322;51.382;7.372;2023-07-31T05:52:32;37.03;;;34.17;;
71502;SDS011;59322;51.382;7.372;2023-07-31T05:54:58;38.30;;;35.17;;
71502;SDS011;59322;51.382;7.372;2023-07-31T05:57:24;40.65;;;36.90;;
71502;SDS011;59322;51.382;7.372;2023-07-31T05:59:50;38.40;;;35.42;;
71502;SDS011;59322;51.382;7.372;2023-07-31T06:02:16;36.38;;;33.55;;
71502;SDS011;59322;51.382;7.372;2023-07-31T06:04:41;35.40;;;32.50;;
71502;SDS011;59322;51.382;7.372;2023-07-31T06:07:07;40.08;;;36.70;;
71502;SDS011;59322;51.382;7.372;2023-07-31T06:09:33;36.67;;;34.00;;
71502;SDS011;59322;51.382;7.372;2023-07-31T06:11:59;33.53;;;30.90;;
71502;SDS011;59322;51.382;7.372;2023-07-31T06:14:25;32.28;;;29.58;;
71502;SDS011;59322;51.382;7.372;2023-07-31T06:16:51;39.28;;;36.35;;
71502;SDS011;59322;51.382;7.372;2023-07-31T06:19:17;39.85;;;36.80;;
71502;SDS011;59322;51.382;7.372;2023-07-31T06:21:43;43.67;;;40.53;;
71502;SDS011;59322;51.382;7.372;2023-07-31T06:24:09;40.63;;;37.45;;
71502;SDS011;59322;51.382;7.372;2023-07-31T06:26:34;34.97;;;32.17;;
71502;SDS011;59322;51.382;7.372;2023-07-31T06:29:00;27.88;;;25.67;;
71502;SDS011;59322;51.382;7.372;2023-07-31T06:31:26;28.10;;;25.90;;
71502;SDS011;59322;51.382;7.372;2023-07-31T06:33:52;24.40;;;22.27;;
71502;SDS011;59322;51.382;7.372;2023-07-31T06:36:18;28.45;;;26.05;;
71502;SDS011;59322;51.382;7.372;2023-07-31T06:38:44;28.75;;;26.30;;
71502;SDS011;59322;51.382;7.372;2023-07-31T06:41:10;28.02;;;25.83;;
71502;SDS011;59322;51.382;7.372;2023-07-31T06:43:36;31.27;;;28.83;;
71502;SDS011;59322;51.382;7.372;2023-07-31T06:46:06;43.75;;;40.53;;
71502;SDS011;59322;51.382;7.372;2023-07-31T06:48:32;41.13;;;38.22;;
71502;SDS011;59322;51.382;7.372;2023-07-31T06:50:58;39.55;;;36.47;;
71502;SDS011;59322;51.382;7.372;2023-07-31T06:53:24;38.78;;;35.92;;
71502;SDS011;59322;51.382;7.372;2023-07-31T06:55:50;40.20;;;37.30;;
71502;SDS011;59322;51.382;7.372;2023-07-31T06:58:16;38.83;;;35.72;;
71502;SDS011;59322;51.382;7.372;2023-07-31T07:00:42;38.28;;;35.55;;
71502;SDS011;59322;51.382;7.372;2023-07-31T07:03:08;37.38;;;34.90;;
71502;SDS011;59322;51.382;7.372;2023-07-31T07:05:34;39.97;;;37.03;;
71502;SDS011;59322;51.382;7.372;2023-07-31T07:08:00;37.08;;;34.38;;
71502;SDS011;59322;51.382;7.372;2023-07-31T07:10:28;37.67;;;34.92;;
71502;SDS011;59322;51.382;7.372;2023-07-31T07:12:54;39.13;;;36.28;;
71502;SDS011;59322;51.382;7.372;2023-07-31T07:15:20;40.55;;;37.78;;
71502;SDS011;59322;51.382;7.372;2023-07-31T07:17:46;37.72;;;34.88;;
71502;SDS011;59322;51.382;7.372;2023-07-31T07:20:12;38.83;;;35.92;;
71502;SDS011;59322;51.382;7.372;2023-07-31T07:22:38;37.13;;;34.45;;
71502;SDS011;59322;51.382;7.372;2023-07-31T07:25:04;40.05;;;37.15;;
71502;SDS011;59322;51.382;7.372;2023-07-31T07:27:30;38.90;;;35.80;;
71502;SDS011;59322;51.382;7.372;2023-07-31T07:29:56;39.13;;;36.33;;
71502;SDS011;59322;51.382;7.372;2023-07-31T07:32:22;39.50;;;36.80;;
71502;SDS011;59322;51.382;7.372;2023-07-31T07:34:48;38.08;;;35.35;;
71502;SDS011;59322;51.382;7.372;2023-07-31T07:37:14;36.90;;;34.05;;
71502;SDS011;59322;51.382;7.372;2023-07-31T07:39:40;39.28;;;36.58;;
71502;SDS011;59322;51.382;7.372;2023-07-31T07:42:06;41.55;;;38.45;;
71502;SDS011;59322;51.382;7.372;2023-07-31T07:44:32;44.38;;;41.38;;
71502;SDS011;59322;51.382;7.372;2023-07-31T07:46:58;44.88;;;41.47;;
71502;SDS011;59322;51.382;7.372;2023-07-31T07:49:24;41.95;;;38.97;;
71502;SDS011;59322;51.382;7.372;2023-07-31T07:51:50;47.22;;;43.92;;
71502;SDS011;59322;51.382;7.372;2023-07-31T07:54:16;49.33;;;45.90;;
71502;SDS011;59322;51.382;7.372;2023-07-31T07:56:42;47.00;;;43.80;;
71502;SDS011;59322;51.382;7.372;2023-07-31T07:59:08;48.72;;;45.45;;
71502;SDS011;59322;51.382;7.372;2023-07-31T08:01:34;50.00;;;46.28;;
71502;SDS011;59322;51.382;7.372;2023-07-31T08:04:00;52.03;;;47.95;;
71502;SDS011;59322;51.382;7.372;2023-07-31T08:06:26;51.55;;;48.03;;
71502;SDS011;59322;51.382;7.372;2023-07-31T08:08:52;50.60;;;47.22;;
71502;SDS011;59322;51.382;7.372;2023-07-31T08:11:17;49.78;;;46.45;;
71502;SDS011;59322;51.382;7.372;2023-07-31T08:13:43;50.53;;;46.88;;
71502;SDS011;59322;51.382;7.372;2023-07-31T08:16:09;48.25;;;45.22;;
71502;SDS011;59322;51.382;7.372;2023-07-31T08:18:35;47.70;;;44.60;;
71502;SDS011;59322;51.382;7.372;2023-07-31T08:21:04;46.67;;;43.58;;
71502;SDS011;59322;51.382;7.372;2023-07-31T08:23:30;45.08;;;42.20;;
71502;SDS011;59322;51.382;7.372;2023-07-31T08:25:56;46.28;;;42.83;;
71502;SDS011;59322;51.382;7.372;2023-07-31T08:28:22;47.40;;;44.40;;
71502;SDS011;59322;51.382;7.372;2023-07-31T08:30:48;47.90;;;44.60;;
71502;SDS011;59322;51.382;7.372;2023-07-31T08:33:14;46.45;;;43.35;;
71502;SDS011;59322;51.382;7.372;2023-07-31T08:35:40;46.97;;;43.85;;
71502;SDS011;59322;51.382;7.372;2023-07-31T08:38:06;42.55;;;39.72;;
71502;SDS011;59322;51.382;7.372;2023-07-31T08:40:31;43.95;;;40.95;;
71502;SDS011;59322;51.382;7.372;2023-07-31T08:42:58;36.53;;;34.13;;
71502;SDS011;59322;51.382;7.372;2023-07-31T08:45:24;34.40;;;32.03;;
71502;SDS011;59322;51.382;7.372;2023-07-31T08:47:50;35.53;;;33.05;;
71502;SDS011;59322;51.382;7.372;2023-07-31T08:50:17;34.95;;;32.65;;
71502;SDS011;59322;51.382;7.372;2023-07-31T08:52:43;37.85;;;35.45;;
71502;SDS011;59322;51.382;7.372;2023-07-31T08:55:09;39.05;;;36.50;;
71502;SDS011;59322;51.382;7.372;2023-07-31T08:57:36;37.88;;;35.47;;
71502;SDS011;59322;51.382;7.372;2023-07-31T09:00:06;42.53;;;39.90;;
71502;SDS011;59322;51.382;7.372;2023-07-31T09:02:34;41.58;;;38.85;;
71502;SDS011;59322;51.382;7.372;2023-07-31T09:05:03;38.35;;;35.95;;
71502;SDS011;59322;51.382;7.372;2023-07-31T09:07:29;35.92;;;33.42;;
71502;SDS011;59322;51.382;7.372;2023-07-31T09:09:57;34.40;;;32.10;;
71502;SDS011;59322;51.382;7.372;2023-07-31T09:12:23;36.08;;;33.78;;
71502;SDS011;59322;51.382;7.372;2023-07-31T09:14:49;36.67;;;34.17;;
71502;SDS011;59322;51.382;7.372;2023-07-31T09:17:15;35.95;;;33.72;;
71502;SDS011;59322;51.382;7.372;2023-07-31T09:19:41;39.45;;;37.05;;
71502;SDS011;59322;51.382;7.372;2023-07-31T09:22:07;41.80;;;39.13;;
71502;SDS011;59322;51.382;7.372;2023-07-31T09:24:33;43.15;;;40.35;;
71502;SDS011;59322;51.382;7.372;2023-07-31T09:27:00;38.78;;;35.97;;
71502;SDS011;59322;51.382;7.372;2023-07-31T09:29:27;37.38;;;35.08;;
71502;SDS011;59322;51.382;7.372;2023-07-31T09:31:53;35.78;;;33.42;;
71502;SDS011;59322;51.382;7.372;2023-07-31T09:34:20;37.85;;;35.40;;
71502;SDS011;59322;51.382;7.372;2023-07-31T09:36:47;37.28;;;34.78;;
71502;SDS011;59322;51.382;7.372;2023-07-31T09:39:13;33.90;;;31.63;;
71502;SDS011;59322;51.382;7.372;2023-07-31T09:41:41;36.95;;;34.55;;
71502;SDS011;59322;51.382;7.372;2023-07-31T09:44:07;35.03;;;32.72;;
71502;SDS011;59322;51.382;7.372;2023-07-31T09:46:36;35.60;;;32.97;;
71502;SDS011;59322;51.382;7.372;2023-07-31T09:49:09;36.30;;;33.83;;
71502;SDS011;59322;51.382;7.372;2023-07-31T09:51:39;39.08;;;36.55;;
71502;SDS011;59322;51.382;7.372;2023-07-31T09:54:15;42.72;;;39.97;;
71502;SDS011;59322;51.382;7.372;2023-07-31T09:56:42;42.53;;;40.00;;
71502;SDS011;59322;51.382;7.372;2023-07-31T09:59:09;42.75;;;39.85;;
71502;SDS011;59322;51.382;7.372;2023-07-31T10:01:36;41.83;;;39.20;;
71502;SDS011;59322;51.382;7.372;2023-07-31T10:04:02;40.95;;;38.45;;
71502;SDS011;59322;51.382;7.372;2023-07-31T10:06:29;41.38;;;38.78;;
71502;SDS011;59322;51.382;7.372;2023-07-31T10:08:55;41.63;;;39.05;;
71502;SDS011;59322;51.382;7.372;2023-07-31T10:11:22;45.45;;;42.75;;
71502;SDS011;59322;51.382;7.372;2023-07-31T10:13:50;39.88;;;37.33;;
71502;SDS011;59322;51.382;7.372;2023-07-31T10:16:16;43.35;;;40.65;;
71502;SDS011;59322;51.382;7.372;2023-07-31T10:18:42;42.97;;;40.45;;
71502;SDS011;59322;51.382;7.372;2023-07-31T10:21:08;45.25;;;42.55;;
71502;SDS011;59322;51.382;7.372;2023-07-31T10:23:34;44.33;;;41.83;;
71502;SDS011;59322;51.382;7.372;2023-07-31T10:26:00;45.30;;;42.70;;
71502;SDS011;59322;51.382;7.372;2023-07-31T10:28:26;44.92;;;42.38;;
71502;SDS011;59322;51.382;7.372;2023-07-31T10:30:53;46.20;;;43.53;;
71502;SDS011;59322;51.382;7.372;2023-07-31T10:33:19;43.35;;;40.85;;
71502;SDS011;59322;51.382;7.372;2023-07-31T10:35:46;44.63;;;42.05;;
71502;SDS011;59322;51.382;7.372;2023-07-31T10:38:12;44.28;;;41.63;;
71502;SDS011;59322;51.382;7.372;2023-07-31T10:40:39;44.45;;;41.95;;
71502;SDS011;59322;51.382;7.372;2023-07-31T10:43:05;45.38;;;42.75;;
71502;SDS011;59322;51.382;7.372;2023-07-31T10:48:00;40.05;;;37.72;;
71502;SDS011;59322;51.382;7.372;2023-07-31T10:50:26;39.00;;;36.67;;
71502;SDS011;59322;51.382;7.372;2023-07-31T10:52:53;38.40;;;36.20;;
71502;SDS011;59322;51.382;7.372;2023-07-31T10:55:26;40.33;;;38.00;;
71502;SDS011;59322;51.382;7.372;2023-07-31T10:57:53;43.83;;;41.22;;
71502;SDS011;59322;51.382;7.372;2023-07-31T11:00:24;43.83;;;41.22;;
71502;SDS011;59322;51.382;7.372;2023-07-31T11:02:57;47.30;;;44.60;;
71502;SDS011;59322;51.382;7.372;2023-07-31T11:05:40;45.20;;;42.60;;
71502;SDS011;59322;51.382;7.372;2023-07-31T11:10:38;44.08;;;41.45;;
71502;SDS011;59322;51.382;7.372;2023-07-31T11:13:04;40.95;;;38.45;;
71502;SDS011;59322;51.382;7.372;2023-07-31T11:15:30;43.10;;;40.60;;
71502;SDS011;59322;51.382;7.372;2023-07-31T11:17:56;40.30;;;38.00;;
71502;SDS011;59322;51.382;7.372;2023-07-31T11:20:22;45.15;;;42.25;;
71502;SDS011;59322;51.382;7.372;2023-07-31T11:22:48;43.58;;;40.85;;
71502;SDS011;59322;51.382;7.372;2023-07-31T11:25:14;42.53;;;39.97;;
71502;SDS011;59322;51.382;7.372;2023-07-31T11:27:40;37.67;;;35.22;;
71502;SDS011;59322;51.382;7.372;2023-07-31T11:30:06;34.15;;;31.65;;
71502;SDS011;59322;51.382;7.372;2023-07-31T11:32:32;40.33;;;37.85;;
71502;SDS011;59322;51.382;7.372;2023-07-31T11:34:58;47.10;;;43.95;;
71502;SDS011;59322;51.382;7.372;2023-07-31T11:37:24;51.90;;;48.63;;
71502;SDS011;59322;51.382;7.372;2023-07-31T11:39:59;61.42;;;57.78;;
71502;SDS011;59322;51.382;7.372;2023-07-31T11:42:25;57.33;;;53.85;;
71502;SDS011;59322;51.382;7.372;2023-07-31T11:44:51;69.32;;;65.20;;
71502;SDS011;59322;51.382;7.372;2023-07-31T11:47:17;46.40;;;43.33;;
71502;SDS011;59322;51.382;7.372;2023-07-31T11:49:43;39.15;;;36.47;;
71502;SDS011;59322;51.382;7.372;2023-07-31T11:52:09;37.80;;;35.40;;
71502;SDS011;59322;51.382;7.372;2023-07-31T11:54:36;35.40;;;32.97;;
71502;SDS011;59322;51.382;7.372;2023-07-31T11:57:02;34.25;;;32.08;;
71502;SDS011;59322;51.382;7.372;2023-07-31T11:59:28;36.13;;;33.72;;
71502;SDS011;59322;51.382;7.372;2023-07-31T12:01:55;35.65;;;33.20;;
71502;SDS011;59322;51.382;7.372;2023-07-31T12:04:21;34.40;;;32.10;;
71502;SDS011;59322;51.382;7.372;2023-07-31T12:06:47;33.95;;;31.73;;
71502;SDS011;59322;51.382;7.372;2023-07-31T12:09:14;35.15;;;32.85;;
71502;SDS011;59322;51.382;7.372;2023-07-31T12:11:46;36.15;;;33.95;;
71502;SDS011;59322;51.382;7.372;2023-07-31T12:14:22;39.13;;;36.70;;
71502;SDS011;59322;51.382;7.372;2023-07-31T12:16:52;36.13;;;33.83;;
71502;SDS011;59322;51.382;7.372;2023-07-31T12:19:19;36.08;;;33.85;;
71502;SDS011;59322;51.382;7.372;2023-07-31T12:21:45;35.80;;;33.47;;
71502;SDS011;59322;51.382;7.372;2023-07-31T12:24:10;37.90;;;35.17;;
71502;SDS011;59322;51.382;7.372;2023-07-31T12:26:36;34.10;;;31.77;;
71502;SDS011;59322;51.382;7.372;2023-07-31T12:29:05;34.60;;;32.50;;
71502;SDS011;59322;51.382;7.372;2023-07-31T12:31:33;30.38;;;28.38;;
71502;SDS011;59322;51.382;7.372;2023-07-31T12:33:59;32.65;;;30.60;;
71502;SDS011;59322;51.382;7.372;2023-07-31T12:36:25;35.95;;;33.67;;
71502;SDS011;59322;51.382;7.372;2023-07-31T12:38:51;33.72;;;31.77;;
71502;SDS011;59322;51.382;7.372;2023-07-31T12:41:17;31.35;;;29.48;;
71502;SDS011;59322;51.382;7.372;2023-07-31T12:43:44;26.35;;;24.65;;
71502;SDS011;59322;51.382;7.372;2023-07-31T12:46:10;25.83;;;24.13;;
71502;SDS011;59322;51.382;7.372;2023-07-31T12:48:36;30.10;;;28.30;;
71502;SDS011;59322;51.382;7.372;2023-07-31T12:51:02;31.75;;;29.85;;
71502;SDS011;59322;51.382;7.372;2023-07-31T12:53:29;32.53;;;30.52;;
71502;SDS011;59322;51.382;7.372;2023-07-31T12:55:55;38.03;;;35.67;;
71502;SDS011;59322;51.382;7.372;2023-07-31T12:58:21;53.65;;;50.42;;
71502;SDS011;59322;51.382;7.372;2023-07-31T13:00:47;52.58;;;49.53;;
71502;SDS011;59322;51.382;7.372;2023-07-31T13:03:13;46.25;;;43.65;;
71502;SDS011;59322;51.382;7.372;2023-07-31T13:05:39;46.28;;;43.58;;
71502;SDS011;59322;51.382;7.372;2023-07-31T13:08:05;41.65;;;39.30;;
71502;SDS011;59322;51.382;7.372;2023-07-31T13:10:30;43.50;;;41.00;;
71502;SDS011;59322;51.382;7.372;2023-07-31T13:12:56;39.90;;;37.47;;
71502;SDS011;59322;51.382;7.372;2023-07-31T13:15:22;39.47;;;37.17;;
71502;SDS011;59322;51.382;7.372;2023-07-31T13:17:48;56.40;;;53.15;;
71502;SDS011;59322;51.382;7.372;2023-07-31T13:20:14;57.70;;;54.35;;
71502;SDS011;59322;51.382;7.372;2023-07-31T13:22:40;56.08;;;52.72;;
71502;SDS011;59322;51.382;7.372;2023-07-31T13:25:06;61.25;;;57.75;;
71502;SDS011;59322;51.382;7.372;2023-07-31T13:27:33;57.08;;;53.67;;
71502;SDS011;59322;51.382;7.372;2023-07-31T13:29:59;59.05;;;55.58;;
71502;SDS011;59322;51.382;7.372;2023-07-31T13:32:25;61.60;;;58.08;;
71502;SDS011;59322;51.382;7.372;2023-07-31T13:34:51;56.00;;;52.70;;
71502;SDS011;59322;51.382;7.372;2023-07-31T13:37:17;58.78;;;55.40;;
71502;SDS011;59322;51.382;7.372;2023-07-31T13:39:43;67.15;;;63.25;;
71502;SDS011;59322;51.382;7.372;2023-07-31T13:42:09;63.00;;;59.50;;
71502;SDS011;59322;51.382;7.372;2023-07-31T13:44:35;54.35;;;51.08;;
71502;SDS011;59322;51.382;7.372;2023-07-31T13:47:01;39.83;;;37.47;;
71502;SDS011;59322;51.382;7.372;2023-07-31T13:49:27;39.08;;;36.80;;
71502;SDS011;59322;51.382;7.372;2023-07-31T13:51:53;45.58;;;42.78;;
71502;SDS011;59322;51.382;7.372;2023-07-31T13:54:19;46.78;;;44.05;;
71502;SDS011;59322;51.382;7.372;2023-07-31T13:56:45;39.53;;;37.03;;
71502;SDS011;59322;51.382;7.372;2023-07-31T13:59:11;37.25;;;35.05;;
71502;SDS011;59322;51.382;7.372;2023-07-31T14:01:37;34.55;;;32.45;;
71502;SDS011;59322;51.382;7.372;2023-07-31T14:04:03;35.15;;;33.05;;
71502;SDS011;59322;51.382;7.372;2023-07-31T14:06:29;41.72;;;39.17;;
71502;SDS011;59322;51.382;7.372;2023-07-31T14:08:55;46.17;;;43.28;;
71502;SDS011;59322;51.382;7.372;2023-07-31T14:11:21;38.05;;;35.63;;
71502;SDS011;59322;51.382;7.372;2023-07-31T14:13:47;38.38;;;36.00;;
71502;SDS011;59322;51.382;7.372;2023-07-31T14:16:13;44.80;;;42.00;;
71502;SDS011;59322;51.382;7.372;2023-07-31T14:18:39;54.10;;;50.95;;
71502;SDS011;59322;51.382;7.372;2023-07-31T14:21:05;47.15;;;44.25;;
71502;SDS011;59322;51.382;7.372;2023-07-31T14:23:31;47.88;;;44.92;;